createdAt,value
2022-11-21T00:00:32.662Z,6.90
2022-11-21T00:03:03.770Z,6.90
2022-11-21T00:05:31.734Z,7.00
2022-11-21T00:07:59.007Z,7.00
2022-11-21T00:10:26.681Z,7.00
2022-11-21T00:12:55.440Z,7.00
2022-11-21T00:15:23.318Z,7.00
2022-11-21T00:17:50.057Z,7.00
2022-11-21T00:20:17.375Z,7.10
2022-11-21T00:22:44.151Z,7.10
2022-11-21T00:25:11.314Z,7.10
2022-11-21T00:27:38.132Z,7.10
2022-11-21T00:30:06.236Z,7.10
2022-11-21T00:32:33.088Z,7.10
2022-11-21T00:34:59.796Z,7.10
2022-11-21T00:37:26.481Z,7.10
2022-11-21T00:39:53.203Z,7.10
2022-11-21T00:42:19.935Z,7.10
2022-11-21T00:44:46.664Z,7.10
2022-11-21T00:47:13.357Z,7.10
2022-11-21T00:49:40.015Z,7.10
2022-11-21T00:52:06.773Z,7.10
2022-11-21T00:54:33.600Z,7.10
2022-11-21T00:57:00.309Z,7.10
2022-11-21T00:59:27.002Z,7.00
2022-11-21T01:01:53.718Z,7.10
2022-11-21T01:04:20.521Z,7.00
2022-11-21T01:06:47.210Z,7.00
2022-11-21T01:09:13.996Z,7.10
2022-11-21T01:11:40.709Z,7.00
2022-11-21T01:14:07.479Z,7.10
2022-11-21T01:16:35.172Z,7.10
2022-11-21T01:19:01.958Z,7.10
2022-11-21T01:21:31.806Z,7.10
2022-11-21T01:24:02.813Z,7.20
2022-11-21T01:26:31.213Z,7.20
2022-11-21T01:28:58.323Z,7.20
2022-11-21T01:31:27.621Z,7.10
2022-11-21T01:33:56.287Z,7.20
2022-11-21T01:36:28.518Z,7.20
2022-11-21T01:38:57.500Z,7.30
2022-11-21T01:41:28.448Z,7.30
2022-11-21T01:43:55.132Z,7.30
2022-11-21T01:46:23.314Z,7.30
2022-11-21T01:49:10.998Z,7.30
2022-11-21T01:52:02.563Z,7.30
2022-11-21T01:54:56.119Z,7.20
2022-11-21T01:57:28.479Z,7.20
2022-11-21T02:00:21.773Z,7.20
2022-11-21T02:02:54.014Z,7.20
2022-11-21T02:05:24.850Z,7.20
2022-11-21T02:07:54.684Z,7.20
2022-11-21T02:10:22.983Z,7.10
2022-11-21T02:12:55.845Z,7.20
2022-11-21T02:15:27.002Z,7.30
2022-11-21T02:17:53.787Z,7.30
2022-11-21T02:20:25.759Z,7.20
2022-11-21T02:23:04.451Z,7.20
2022-11-21T02:25:34.434Z,7.20
2022-11-21T02:28:05.373Z,7.20
2022-11-21T02:30:34.519Z,7.20
2022-11-21T02:33:01.188Z,7.20
2022-11-21T02:35:27.896Z,7.20
2022-11-21T02:37:59.667Z,7.20
2022-11-21T02:40:33.171Z,7.20
2022-11-21T02:43:08.581Z,7.30
2022-11-21T02:45:39.541Z,7.20
2022-11-21T02:48:06.661Z,7.20
2022-11-21T02:50:35.280Z,7.10
2022-11-21T02:53:04.104Z,7.20
2022-11-21T02:55:31.197Z,7.30
2022-11-21T02:58:03.203Z,7.20
2022-11-21T03:00:32.067Z,7.20
2022-11-21T03:02:58.761Z,7.20
2022-11-21T03:05:25.520Z,7.20
2022-11-21T03:07:52.202Z,7.20
2022-11-21T03:10:19.018Z,7.20
2022-11-21T03:12:45.711Z,7.20
2022-11-21T03:15:14.756Z,7.20
2022-11-21T03:17:42.481Z,7.20
2022-11-21T03:20:09.894Z,7.20
2022-11-21T03:22:36.609Z,7.20
2022-11-21T03:25:03.476Z,7.20
2022-11-21T03:27:30.230Z,7.20
2022-11-21T03:29:56.880Z,7.30
2022-11-21T03:32:23.526Z,7.20
2022-11-21T03:34:50.302Z,7.20
2022-11-21T03:37:17.158Z,7.20
2022-11-21T03:39:43.897Z,7.10
2022-11-21T03:42:10.669Z,7.10
2022-11-21T03:44:37.319Z,7.20
2022-11-21T03:47:04.033Z,7.20
2022-11-21T03:49:30.726Z,7.20
2022-11-21T03:51:57.400Z,7.10
2022-11-21T03:54:24.106Z,7.20
2022-11-21T03:56:50.837Z,7.20
2022-11-21T03:59:17.572Z,7.20
2022-11-21T04:01:44.298Z,7.20
2022-11-21T04:04:11.032Z,7.10
2022-11-21T04:06:37.695Z,7.10
2022-11-21T04:09:04.496Z,7.10
2022-11-21T04:11:31.202Z,7.10
2022-11-21T04:13:57.883Z,7.10
2022-11-21T04:16:24.960Z,7.10
2022-11-21T04:18:51.604Z,7.00
2022-11-21T04:21:18.240Z,7.00
2022-11-21T04:23:44.874Z,7.00
2022-11-21T04:26:11.580Z,7.00
2022-11-21T04:28:38.243Z,7.00
2022-11-21T04:31:11.040Z,6.90
2022-11-21T04:33:39.441Z,6.90
2022-11-21T04:36:08.165Z,6.90
2022-11-21T04:38:34.914Z,6.90
2022-11-21T04:41:01.569Z,7.00
2022-11-21T04:43:28.185Z,7.00
2022-11-21T04:45:54.915Z,7.00
2022-11-21T04:48:21.655Z,6.90
2022-11-21T04:50:48.542Z,6.90
2022-11-21T04:53:15.266Z,6.80
2022-11-21T04:55:41.964Z,6.80
2022-11-21T04:58:08.914Z,6.90
2022-11-21T05:00:35.679Z,6.80
2022-11-21T05:03:06.577Z,6.80
2022-11-21T05:05:33.621Z,6.80
2022-11-21T05:08:00.712Z,6.90
2022-11-21T05:10:27.446Z,6.80
2022-11-21T05:13:19.819Z,6.80
2022-11-21T05:15:47.573Z,6.70
2022-11-21T05:18:14.234Z,6.70
2022-11-21T05:20:40.907Z,6.70
2022-11-21T05:23:07.573Z,6.70
2022-11-21T05:25:34.354Z,6.70
2022-11-21T05:28:00.968Z,6.80
2022-11-21T05:30:27.802Z,6.70
2022-11-21T05:32:54.447Z,6.80
2022-11-21T05:35:21.137Z,6.80
2022-11-21T05:37:47.820Z,6.80
2022-11-21T05:40:14.630Z,6.80
2022-11-21T05:43:01.289Z,6.80
2022-11-21T05:45:28.063Z,6.80
2022-11-21T05:47:54.742Z,6.80
2022-11-21T05:50:21.362Z,6.80
2022-11-21T05:52:47.989Z,6.80
2022-11-21T05:55:14.773Z,6.80
2022-11-21T05:57:41.404Z,6.80
2022-11-21T06:00:08.821Z,6.80
2022-11-21T06:02:54.078Z,6.80
2022-11-21T06:05:20.912Z,6.90
2022-11-21T06:07:47.728Z,6.90
2022-11-21T06:10:14.545Z,6.80
2022-11-21T06:12:41.214Z,6.80
2022-11-21T06:15:08.269Z,6.90
2022-11-21T06:17:34.939Z,6.90
2022-11-21T06:20:01.837Z,6.90
2022-11-21T06:22:28.488Z,6.90
2022-11-21T06:24:55.122Z,6.90
2022-11-21T06:27:21.828Z,6.80
2022-11-21T06:29:48.437Z,6.90
2022-11-21T06:32:15.143Z,6.80
2022-11-21T06:34:42.219Z,6.80
2022-11-21T06:37:08.874Z,6.80
2022-11-21T06:39:35.497Z,6.80
2022-11-21T06:42:02.479Z,6.80
2022-11-21T06:44:29.504Z,6.90
2022-11-21T06:46:56.475Z,6.80
2022-11-21T06:49:23.261Z,6.80
2022-11-21T06:51:50.245Z,6.90
2022-11-21T06:54:17.306Z,6.90
2022-11-21T06:56:44.165Z,6.80
2022-11-21T06:59:11.025Z,6.90
2022-11-21T07:01:37.939Z,6.80
2022-11-21T07:04:04.811Z,6.80
2022-11-21T07:06:31.568Z,6.80
2022-11-21T07:09:31.579Z,6.80
2022-11-21T07:11:45.002Z,6.90
2022-11-21T07:14:12.864Z,6.90
2022-11-21T07:16:39.558Z,6.80
2022-11-21T07:19:06.463Z,6.80
2022-11-21T07:21:33.076Z,6.90
2022-11-21T07:23:59.926Z,6.90
2022-11-21T07:26:26.565Z,6.90
2022-11-21T07:28:53.396Z,6.90
2022-11-21T07:31:20.027Z,6.90
2022-11-21T07:33:47.482Z,6.90
2022-11-21T07:36:14.358Z,6.90
2022-11-21T07:38:41.411Z,6.90
2022-11-21T07:41:08.890Z,6.90
2022-11-21T07:43:35.637Z,7.00
2022-11-21T07:46:02.344Z,7.00
2022-11-21T07:48:28.957Z,7.00
2022-11-21T07:50:55.599Z,7.00
2022-11-21T07:53:22.311Z,7.10
2022-11-21T07:55:48.977Z,7.10
2022-11-21T07:58:17.013Z,7.10
2022-11-21T08:00:44.068Z,7.20
2022-11-21T08:03:12.355Z,7.10
2022-11-21T08:05:41.529Z,7.10
2022-11-21T08:08:09.224Z,7.10
2022-11-21T08:10:41.486Z,7.20
2022-11-21T08:13:08.186Z,7.20
2022-11-21T08:15:35.517Z,7.20
2022-11-21T08:18:13.683Z,7.30
2022-11-21T08:20:40.737Z,7.30
2022-11-21T08:23:07.838Z,7.40
2022-11-21T08:25:37.359Z,7.40
2022-11-21T08:28:04.923Z,7.50
2022-11-21T08:30:31.845Z,7.50
2022-11-21T08:32:59.004Z,7.50
2022-11-21T08:35:30.239Z,7.50
2022-11-21T08:38:01.511Z,7.50
2022-11-21T08:40:30.531Z,7.50
2022-11-21T08:43:15.448Z,7.50
2022-11-21T08:45:42.117Z,7.50
2022-11-21T08:48:11.941Z,7.50
2022-11-21T08:50:38.658Z,7.50
2022-11-21T08:53:05.299Z,7.60
2022-11-21T08:55:31.993Z,7.60
2022-11-21T08:57:58.919Z,7.60
2022-11-21T09:00:25.739Z,7.70
2022-11-21T09:02:52.397Z,7.70
2022-11-21T09:05:19.078Z,7.70
2022-11-21T09:07:45.797Z,7.80
2022-11-21T09:10:12.717Z,7.80
2022-11-21T09:12:39.470Z,7.90
2022-11-21T09:15:25.230Z,7.80
2022-11-21T09:18:04.131Z,7.90
2022-11-21T09:20:32.790Z,7.80
2022-11-21T09:23:08.160Z,7.90
2022-11-21T09:25:35.049Z,7.90
2022-11-21T09:28:07.310Z,8.00
2022-11-21T09:30:34.208Z,8.00
2022-11-21T09:33:05.694Z,8.10
2022-11-21T09:35:32.773Z,8.10
2022-11-21T09:38:00.027Z,8.20
2022-11-21T09:40:28.893Z,8.20
2022-11-21T09:43:21.793Z,8.30
2022-11-21T09:45:50.629Z,8.40
2022-11-21T09:48:27.782Z,8.40
2022-11-21T09:50:59.169Z,8.40
2022-11-21T09:53:32.219Z,8.40
2022-11-21T09:56:13.092Z,8.30
2022-11-21T09:58:49.449Z,8.40
2022-11-21T10:01:17.568Z,8.40
2022-11-21T10:03:49.501Z,8.60
2022-11-21T10:06:24.102Z,8.60
2022-11-21T10:09:04.741Z,8.60
2022-11-21T10:12:07.182Z,8.70
2022-11-21T10:15:00.630Z,8.70
2022-11-21T10:17:57.004Z,8.80
2022-11-21T10:20:32.530Z,8.70
2022-11-21T10:23:14.227Z,8.70
2022-11-21T10:25:48.944Z,8.70
2022-11-21T10:28:45.136Z,8.80
2022-11-21T10:31:13.155Z,8.90
2022-11-21T10:33:40.969Z,8.90
2022-11-21T10:36:26.832Z,8.90
2022-11-21T10:39:00.542Z,9.10
2022-11-21T10:41:55.257Z,9.20
2022-11-21T10:44:45.336Z,9.30
2022-11-21T10:47:30.027Z,9.30
2022-11-21T10:50:10.164Z,9.40
2022-11-21T10:52:48.128Z,9.40
2022-11-21T10:55:16.608Z,9.30
2022-11-21T10:57:46.085Z,9.50
2022-11-21T11:00:12.766Z,9.50
2022-11-21T11:02:41.008Z,9.60
2022-11-21T11:05:16.758Z,9.50
2022-11-21T11:07:58.454Z,9.60
2022-11-21T11:10:27.939Z,9.70
2022-11-21T11:13:44.461Z,9.70
2022-11-21T11:16:11.116Z,9.80
2022-11-21T11:18:41.204Z,10.00
2022-11-21T11:21:20.579Z,10.10
2022-11-21T11:23:51.988Z,10.10
2022-11-21T11:26:28.439Z,10.10
2022-11-21T11:29:14.352Z,10.20
2022-11-21T11:32:04.558Z,10.30
2022-11-21T11:34:40.119Z,10.40
2022-11-21T11:37:41.184Z,10.50
2022-11-21T11:40:15.803Z,10.50
2022-11-21T11:43:16.233Z,10.40
2022-11-21T11:46:10.321Z,10.40
2022-11-21T11:48:56.530Z,10.50
2022-11-21T11:51:31.864Z,10.50
2022-11-21T11:54:03.950Z,10.50
2022-11-21T11:56:39.902Z,10.50
2022-11-21T11:59:29.966Z,10.50
2022-11-21T12:02:14.598Z,10.50
2022-11-21T12:04:54.291Z,10.60
2022-11-21T12:10:59.726Z,10.60
2022-11-21T12:13:28.331Z,10.60
2022-11-21T12:16:05.923Z,10.50
2022-11-21T12:18:47.836Z,10.50
2022-11-21T12:21:15.947Z,10.50
2022-11-21T12:23:56.896Z,10.50
2022-11-21T12:26:45.494Z,10.50
2022-11-21T12:29:32.376Z,10.50
2022-11-21T12:32:21.901Z,10.50
2022-11-21T12:35:00.701Z,10.50
2022-11-21T12:38:06.143Z,10.40
2022-11-21T12:40:38.580Z,10.40
2022-11-21T12:43:08.286Z,10.40
2022-11-21T12:45:37.110Z,10.40
2022-11-21T12:48:37.047Z,10.50
2022-11-21T12:51:53.310Z,10.40
2022-11-21T12:54:33.601Z,10.40
2022-11-21T12:57:13.922Z,10.30
2022-11-21T13:00:07.590Z,10.30
2022-11-21T13:02:56.985Z,10.30
2022-11-21T13:05:34.220Z,10.30
2022-11-21T13:08:24.622Z,10.30
2022-11-21T13:11:46.731Z,10.30
2022-11-21T13:14:19.579Z,10.30
2022-11-21T13:17:18.171Z,10.30
2022-11-21T13:20:13.702Z,10.30
2022-11-21T13:22:40.287Z,10.30
2022-11-21T13:25:33.880Z,10.30
2022-11-21T13:28:18.862Z,10.20
2022-11-21T13:30:56.128Z,10.30
2022-11-21T13:33:35.082Z,10.20
2022-11-21T13:36:12.538Z,10.20
2022-11-21T13:38:51.423Z,10.20
2022-11-21T13:41:55.133Z,10.20
2022-11-21T13:44:33.887Z,10.20
2022-11-21T13:47:09.606Z,10.20
2022-11-21T13:49:54.835Z,10.10
2022-11-21T13:52:45.276Z,10.10
2022-11-21T13:55:42.036Z,10.10
2022-11-21T13:58:29.750Z,10.00
2022-11-21T14:01:22.740Z,10.00
2022-11-21T14:04:11.644Z,9.90
2022-11-21T14:06:44.828Z,9.90
2022-11-21T14:09:24.987Z,10.00
2022-11-21T14:12:20.889Z,9.90
2022-11-21T14:15:21.736Z,9.80
2022-11-21T14:17:56.398Z,9.90
2022-11-21T14:20:26.135Z,9.90
2022-11-21T14:22:58.350Z,9.90
2022-11-21T14:25:36.197Z,9.80
2022-11-21T14:28:05.922Z,9.80
2022-11-21T14:30:35.749Z,9.70
2022-11-21T14:33:38.860Z,9.60
2022-11-21T14:36:10.002Z,9.50
2022-11-21T14:39:20.887Z,9.60
2022-11-21T14:41:42.938Z,9.50
2022-11-21T14:44:09.583Z,9.40
2022-11-21T14:46:38.636Z,9.40
2022-11-21T14:49:17.485Z,9.60
2022-11-21T14:51:59.078Z,9.60
2022-11-21T14:54:39.472Z,9.60
2022-11-21T14:57:08.780Z,9.60
2022-11-21T14:59:41.704Z,9.50
2022-11-21T15:02:14.900Z,9.50
2022-11-21T15:04:43.175Z,9.60
2022-11-21T15:07:31.268Z,9.40
2022-11-21T15:10:27.228Z,9.40
2022-11-21T15:12:48.363Z,9.40
2022-11-21T15:15:40.706Z,9.30
2022-11-21T15:21:06.993Z,9.00
2022-11-21T15:23:36.903Z,9.00
2022-11-21T15:26:03.743Z,9.00
2022-11-21T15:28:31.083Z,8.90
2022-11-21T15:31:20.133Z,9.00
2022-11-21T15:37:15.275Z,8.90
2022-11-21T15:39:48.379Z,8.60
2022-11-21T15:42:33.811Z,8.60
2022-11-21T15:45:20.123Z,8.60
2022-11-21T15:47:47.293Z,8.50
2022-11-21T15:50:14.702Z,8.50
2022-11-21T15:52:49.540Z,8.50
2022-11-21T15:55:26.140Z,8.40
2022-11-21T15:57:13.068Z,9.10
2022-11-21T15:57:52.786Z,8.20
2022-11-21T16:00:19.649Z,8.10
2022-11-21T16:02:47.281Z,8.00
2022-11-21T16:05:15.649Z,8.10
2022-11-21T16:07:42.520Z,8.20
2022-11-21T16:10:17.150Z,8.10
2022-11-21T16:12:44.856Z,8.00
2022-11-21T16:15:11.544Z,8.00
2022-11-21T16:17:39.659Z,8.00
2022-11-21T16:20:06.666Z,8.00
2022-11-21T16:22:33.858Z,8.00
2022-11-21T16:25:00.509Z,7.80
2022-11-21T16:27:27.784Z,7.50
2022-11-21T16:29:54.415Z,7.60
2022-11-21T16:32:21.133Z,7.60
2022-11-21T16:34:47.892Z,7.60
2022-11-21T16:37:14.553Z,7.60
2022-11-21T16:39:41.879Z,7.40
2022-11-21T16:42:11.117Z,7.40
2022-11-21T16:44:37.845Z,7.20
2022-11-21T16:47:08.257Z,7.10
2022-11-21T16:49:36.132Z,7.00
2022-11-21T16:52:02.833Z,7.00
2022-11-21T16:54:29.432Z,7.10
2022-11-21T16:56:56.117Z,7.20
2022-11-21T16:59:22.768Z,7.10
2022-11-21T17:01:49.969Z,7.00
2022-11-21T17:04:17.664Z,6.90
2022-11-21T17:06:45.366Z,7.10
2022-11-21T17:09:12.140Z,7.10
2022-11-21T17:11:38.836Z,7.20
2022-11-21T17:14:06.887Z,7.20
2022-11-21T17:16:34.793Z,7.20
2022-11-21T17:19:02.555Z,7.40
2022-11-21T17:21:30.194Z,7.40
2022-11-21T17:23:57.465Z,7.40
2022-11-21T17:26:27.231Z,7.40
2022-11-21T17:28:59.232Z,7.40
2022-11-21T17:31:26.748Z,7.20
2022-11-21T17:33:55.591Z,7.20
2022-11-21T17:36:24.804Z,7.30
2022-11-21T17:38:52.305Z,7.30
2022-11-21T17:41:21.422Z,7.30
2022-11-21T17:43:48.858Z,7.30
2022-11-21T17:46:17.623Z,7.40
2022-11-21T17:48:48.610Z,7.40
2022-11-21T17:51:23.970Z,7.50
2022-11-21T17:53:51.801Z,7.60
2022-11-21T17:56:26.399Z,7.60
2022-11-21T17:58:53.422Z,7.60
2022-11-21T18:01:21.038Z,7.70
2022-11-21T18:03:56.615Z,7.70
2022-11-21T18:06:23.713Z,7.60
2022-11-21T18:08:50.567Z,7.50
2022-11-21T18:11:21.425Z,7.60
2022-11-21T18:13:49.444Z,7.70
2022-11-21T18:16:19.719Z,7.70
2022-11-21T18:18:46.481Z,7.70
2022-11-21T18:21:15.853Z,7.70
2022-11-21T18:23:43.974Z,7.70
2022-11-21T18:26:22.168Z,7.70
2022-11-21T18:29:01.649Z,7.70
2022-11-21T18:31:37.278Z,7.70
2022-11-21T18:34:05.621Z,7.80
2022-11-21T18:36:33.014Z,7.70
2022-11-21T18:39:05.945Z,7.80
2022-11-21T18:41:36.684Z,7.80
2022-11-21T18:44:05.489Z,7.80
2022-11-21T18:46:34.016Z,7.80
2022-11-21T18:49:05.992Z,7.80
2022-11-21T18:51:34.217Z,7.80
2022-11-21T18:54:10.466Z,7.80
2022-11-21T18:56:39.003Z,7.80
2022-11-21T18:59:06.417Z,7.60
2022-11-21T19:01:35.421Z,7.50
2022-11-21T19:04:02.502Z,7.60
2022-11-21T19:06:29.567Z,7.70
2022-11-21T19:08:57.957Z,7.80
2022-11-21T19:11:27.464Z,7.90
2022-11-21T19:13:55.476Z,7.80
2022-11-21T19:16:24.758Z,7.80
2022-11-21T19:19:26.019Z,7.70
2022-11-21T19:21:41.061Z,7.70
2022-11-21T19:24:13.256Z,7.80
2022-11-21T19:26:40.747Z,7.80
2022-11-21T19:29:07.526Z,7.80
2022-11-21T19:31:36.660Z,7.80
2022-11-21T19:34:05.947Z,7.80
2022-11-21T19:36:32.640Z,7.80
2022-11-21T19:38:59.325Z,7.80
2022-11-21T19:41:26.715Z,7.80
2022-11-21T19:43:55.971Z,7.70
2022-11-21T19:46:31.886Z,7.80
2022-11-21T19:48:59.304Z,7.80
2022-11-21T19:51:32.081Z,7.80
2022-11-21T19:53:58.789Z,7.90
2022-11-21T19:56:26.422Z,7.80
2022-11-21T19:58:55.298Z,7.80
2022-11-21T20:01:29.814Z,7.80
2022-11-21T20:03:58.738Z,7.90
2022-11-21T20:06:26.630Z,7.90
2022-11-21T20:08:56.380Z,7.90
2022-11-21T20:11:24.576Z,7.90
2022-11-21T20:13:51.716Z,7.80
2022-11-21T20:16:19.827Z,7.90
2022-11-21T20:18:46.684Z,7.90
2022-11-21T20:21:14.055Z,7.90
2022-11-21T20:23:41.014Z,8.00
2022-11-21T20:26:08.851Z,7.90
2022-11-21T20:28:36.736Z,8.00
2022-11-21T20:31:12.760Z,7.90
2022-11-21T20:33:44.949Z,8.00
2022-11-21T20:36:18.567Z,8.00
2022-11-21T20:38:53.923Z,8.00
2022-11-21T20:41:21.864Z,7.80
2022-11-21T20:46:35.343Z,7.90
2022-11-21T20:49:02.282Z,7.90
2022-11-21T20:54:15.606Z,8.00
2022-11-21T20:56:44.414Z,7.90
2022-11-21T20:59:12.188Z,7.90
2022-11-21T21:01:39.115Z,7.80
2022-11-21T21:04:06.176Z,7.80
2022-11-21T21:06:32.834Z,7.80
2022-11-21T21:08:59.472Z,7.80
2022-11-21T21:14:14.455Z,7.90
2022-11-21T21:16:43.238Z,7.90
2022-11-21T21:19:09.888Z,7.90
2022-11-21T21:21:36.557Z,7.90
2022-11-21T21:24:06.469Z,7.90
2022-11-21T21:26:42.512Z,7.90
2022-11-21T21:29:16.481Z,7.90
2022-11-21T21:31:50.458Z,8.00
2022-11-21T21:34:18.758Z,8.00
2022-11-21T21:36:45.413Z,8.00
2022-11-21T21:39:12.192Z,7.90
2022-11-21T21:41:44.601Z,7.90
2022-11-21T21:44:11.821Z,7.90
2022-11-21T21:46:38.501Z,7.80
2022-11-21T21:49:05.213Z,7.90
2022-11-21T21:51:32.220Z,7.90
2022-11-21T21:53:59.777Z,7.90
2022-11-21T21:56:28.591Z,7.90
2022-11-21T21:58:57.217Z,7.90
2022-11-21T22:01:29.572Z,7.90
2022-11-21T22:03:58.756Z,7.90
2022-11-21T22:06:25.951Z,7.80
2022-11-21T22:08:54.285Z,7.80
2022-11-21T22:11:26.561Z,7.80
2022-11-21T22:14:05.318Z,7.80
2022-11-21T22:16:34.989Z,7.80
2022-11-21T22:19:01.718Z,7.80
2022-11-21T22:21:32.293Z,7.80
2022-11-21T22:26:47.231Z,7.80
2022-11-21T22:29:13.961Z,7.80
2022-11-21T22:31:40.765Z,7.90
2022-11-21T22:34:09.588Z,7.90
2022-11-21T22:36:36.301Z,7.90
2022-11-21T22:39:02.938Z,7.90
2022-11-21T22:41:29.587Z,7.80
2022-11-21T22:43:58.445Z,7.80
2022-11-21T22:46:29.324Z,7.80
2022-11-21T22:48:56.501Z,7.80
2022-11-21T22:51:29.495Z,7.80
2022-11-21T22:53:56.776Z,7.80
2022-11-21T22:56:24.732Z,7.80
2022-11-21T22:58:51.904Z,7.90
2022-11-21T23:01:23.827Z,7.80
2022-11-21T23:03:51.273Z,7.80
2022-11-21T23:06:26.020Z,7.80
2022-11-21T23:08:54.673Z,7.80
2022-11-21T23:11:24.287Z,7.80
2022-11-21T23:13:52.154Z,7.80
2022-11-21T23:16:19.413Z,7.80
2022-11-21T23:18:46.120Z,7.80
2022-11-21T23:21:14.244Z,7.80
2022-11-21T23:23:41.156Z,7.80
2022-11-21T23:26:08.097Z,7.80
2022-11-21T23:28:34.811Z,7.90
2022-11-21T23:31:01.925Z,7.80
2022-11-21T23:33:28.584Z,7.90
2022-11-21T23:35:55.291Z,7.80
2022-11-21T23:38:22.166Z,7.80
2022-11-21T23:40:49.665Z,7.90
2022-11-21T23:43:17.506Z,7.90
2022-11-21T23:45:45.408Z,7.90
2022-11-21T23:48:12.126Z,7.90
2022-11-21T23:50:38.849Z,7.90
2022-11-21T23:53:05.622Z,7.90
2022-11-21T23:55:32.361Z,7.90
2022-11-21T23:57:59.084Z,7.90
